sensor_id;sensor_type;location;lat;lon;timestamp;P1;durP1;ratioP1;P2;durP2;ratioP2
63370;SDS011;49504;48.336;14.472;2023-05-10T04:21:35;11.48;;;3.72;;
63370;SDS011;49504;48.336;14.472;2023-05-10T04:25:41;10.38;;;3.85;;
63370;SDS011;49504;48.336;14.472;2023-05-10T04:29:03;8.70;;;2.65;;
63370;SDS011;49504;48.336;14.472;2023-05-10T04:32:24;12.20;;;2.88;;
63370;SDS011;49504;48.336;14.472;2023-05-10T04:35:45;10.30;;;3.00;;
63370;SDS011;49504;48.336;14.472;2023-05-10T04:39:06;17.40;;;2.90;;
63370;SDS011;49504;48.336;14.472;2023-05-10T04:42:28;8.85;;;3.45;;
63370;SDS011;49504;48.336;14.472;2023-05-10T04:45:50;7.10;;;2.45;;
63370;SDS011;49504;48.336;14.472;2023-05-10T04:49:11;9.43;;;2.97;;
63370;SDS011;49504;48.336;14.472;2023-05-10T04:52:32;9.63;;;2.85;;
63370;SDS011;49504;48.336;14.472;2023-05-10T04:55:53;8.13;;;2.97;;
63370;SDS011;49504;48.336;14.472;2023-05-10T04:59:15;7.05;;;2.45;;
63370;SDS011;49504;48.336;14.472;2023-05-10T05:02:36;10.93;;;2.83;;
63370;SDS011;49504;48.336;14.472;2023-05-10T05:05:57;9.27;;;2.72;;
63370;SDS011;49504;48.336;14.472;2023-05-10T05:09:19;8.32;;;2.72;;
63370;SDS011;49504;48.336;14.472;2023-05-10T05:12:40;12.10;;;3.22;;
63370;SDS011;49504;48.336;14.472;2023-05-10T05:16:02;7.30;;;2.58;;
63370;SDS011;49504;48.336;14.472;2023-05-10T05:19:24;6.78;;;2.72;;
63370;SDS011;49504;48.336;14.472;2023-05-10T05:22:45;9.75;;;2.63;;
63370;SDS011;49504;48.336;14.472;2023-05-10T05:26:07;9.65;;;2.63;;
63370;SDS011;49504;48.336;14.472;2023-05-10T05:32:10;6.38;;;2.30;;
63370;SDS011;49504;48.336;14.472;2023-05-10T05:35:31;6.72;;;2.58;;
63370;SDS011;49504;48.336;14.472;2023-05-10T05:38:53;7.25;;;2.50;;
63370;SDS011;49504;48.336;14.472;2023-05-10T05:42:14;6.75;;;2.50;;
63370;SDS011;49504;48.336;14.472;2023-05-10T05:45:35;5.40;;;2.70;;
63370;SDS011;49504;48.336;14.472;2023-05-10T05:48:58;4.68;;;2.40;;
63370;SDS011;49504;48.336;14.472;2023-05-10T05:52:19;6.18;;;2.70;;
63370;SDS011;49504;48.336;14.472;2023-05-10T05:55:40;6.18;;;2.65;;
63370;SDS011;49504;48.336;14.472;2023-05-10T05:59:11;7.15;;;2.55;;
63370;SDS011;49504;48.336;14.472;2023-05-10T06:02:32;7.97;;;2.45;;
63370;SDS011;49504;48.336;14.472;2023-05-10T06:05:54;5.63;;;3.10;;
63370;SDS011;49504;48.336;14.472;2023-05-10T06:09:16;7.90;;;2.70;;
63370;SDS011;49504;48.336;14.472;2023-05-10T06:13:25;6.03;;;2.35;;
63370;SDS011;49504;48.336;14.472;2023-05-10T06:16:47;5.35;;;2.65;;
63370;SDS011;49504;48.336;14.472;2023-05-10T06:20:08;5.32;;;2.63;;
63370;SDS011;49504;48.336;14.472;2023-05-10T06:23:30;6.60;;;2.67;;
63370;SDS011;49504;48.336;14.472;2023-05-10T06:26:52;5.32;;;2.55;;
63370;SDS011;49504;48.336;14.472;2023-05-10T06:30:14;8.00;;;3.00;;
63370;SDS011;49504;48.336;14.472;2023-05-10T06:33:36;6.25;;;2.58;;
63370;SDS011;49504;48.336;14.472;2023-05-10T06:36:57;6.85;;;3.03;;
63370;SDS011;49504;48.336;14.472;2023-05-10T06:40:18;6.68;;;2.50;;
63370;SDS011;49504;48.336;14.472;2023-05-10T06:43:39;7.35;;;2.60;;
63370;SDS011;49504;48.336;14.472;2023-05-10T06:47:02;8.65;;;3.00;;
63370;SDS011;49504;48.336;14.472;2023-05-10T06:50:23;5.00;;;2.65;;
63370;SDS011;49504;48.336;14.472;2023-05-10T06:53:44;10.93;;;3.28;;
63370;SDS011;49504;48.336;14.472;2023-05-10T06:57:05;4.90;;;2.72;;
63370;SDS011;49504;48.336;14.472;2023-05-10T07:00:26;6.85;;;2.80;;
63370;SDS011;49504;48.336;14.472;2023-05-10T07:03:48;6.35;;;3.10;;
63370;SDS011;49504;48.336;14.472;2023-05-10T07:07:10;7.88;;;2.78;;
63370;SDS011;49504;48.336;14.472;2023-05-10T07:10:31;4.93;;;2.72;;
63370;SDS011;49504;48.336;14.472;2023-05-10T07:13:53;5.95;;;2.47;;
63370;SDS011;49504;48.336;14.472;2023-05-10T07:17:14;8.07;;;2.72;;
63370;SDS011;49504;48.336;14.472;2023-05-10T07:20:37;5.78;;;2.65;;
63370;SDS011;49504;48.336;14.472;2023-05-10T07:23:58;7.28;;;2.70;;
63370;SDS011;49504;48.336;14.472;2023-05-10T07:27:19;6.03;;;2.35;;
63370;SDS011;49504;48.336;14.472;2023-05-10T07:30:40;4.85;;;2.20;;
63370;SDS011;49504;48.336;14.472;2023-05-10T07:34:01;7.63;;;2.80;;
63370;SDS011;49504;48.336;14.472;2023-05-10T07:37:23;7.18;;;2.92;;
63370;SDS011;49504;48.336;14.472;2023-05-10T07:43:22;6.80;;;3.28;;
63370;SDS011;49504;48.336;14.472;2023-05-10T07:46:43;6.30;;;2.95;;
63370;SDS011;49504;48.336;14.472;2023-05-10T07:50:05;6.88;;;2.95;;
63370;SDS011;49504;48.336;14.472;2023-05-10T07:53:48;7.70;;;2.67;;
63370;SDS011;49504;48.336;14.472;2023-05-10T07:57:09;5.75;;;2.80;;
63370;SDS011;49504;48.336;14.472;2023-05-10T08:00:30;5.78;;;2.42;;
63370;SDS011;49504;48.336;14.472;2023-05-10T08:03:51;5.43;;;2.88;;
63370;SDS011;49504;48.336;14.472;2023-05-10T08:07:13;6.03;;;3.20;;
63370;SDS011;49504;48.336;14.472;2023-05-10T08:10:35;6.03;;;2.75;;
63370;SDS011;49504;48.336;14.472;2023-05-10T08:13:56;6.13;;;2.83;;
63370;SDS011;49504;48.336;14.472;2023-05-10T08:17:17;7.35;;;3.13;;
63370;SDS011;49504;48.336;14.472;2023-05-10T08:20:39;5.70;;;2.88;;
63370;SDS011;49504;48.336;14.472;2023-05-10T08:24:00;6.72;;;2.92;;
63370;SDS011;49504;48.336;14.472;2023-05-10T08:27:22;5.45;;;2.75;;
63370;SDS011;49504;48.336;14.472;2023-05-10T08:30:43;6.35;;;2.92;;
63370;SDS011;49504;48.336;14.472;2023-05-10T08:34:04;4.72;;;2.72;;
63370;SDS011;49504;48.336;14.472;2023-05-10T08:37:26;6.32;;;2.90;;
63370;SDS011;49504;48.336;14.472;2023-05-10T08:40:50;6.22;;;3.00;;
63370;SDS011;49504;48.336;14.472;2023-05-10T08:44:16;5.82;;;3.08;;
63370;SDS011;49504;48.336;14.472;2023-05-10T08:47:38;5.82;;;3.38;;
63370;SDS011;49504;48.336;14.472;2023-05-10T08:51:49;6.13;;;3.47;;
63370;SDS011;49504;48.336;14.472;2023-05-10T08:55:15;5.40;;;2.83;;
63370;SDS011;49504;48.336;14.472;2023-05-10T08:58:36;5.35;;;3.03;;
63370;SDS011;49504;48.336;14.472;2023-05-10T09:01:58;6.05;;;3.20;;
63370;SDS011;49504;48.336;14.472;2023-05-10T09:05:20;4.90;;;2.90;;
63370;SDS011;49504;48.336;14.472;2023-05-10T09:08:42;4.82;;;2.67;;
63370;SDS011;49504;48.336;14.472;2023-05-10T09:12:05;4.97;;;2.42;;
63370;SDS011;49504;48.336;14.472;2023-05-10T09:15:28;5.43;;;2.70;;
63370;SDS011;49504;48.336;14.472;2023-05-10T09:18:49;5.40;;;2.83;;
63370;SDS011;49504;48.336;14.472;2023-05-10T09:22:10;5.68;;;3.40;;
63370;SDS011;49504;48.336;14.472;2023-05-10T09:25:33;7.97;;;3.80;;
63370;SDS011;49504;48.336;14.472;2023-05-10T09:28:54;5.88;;;3.28;;
63370;SDS011;49504;48.336;14.472;2023-05-10T09:32:17;5.43;;;3.20;;
63370;SDS011;49504;48.336;14.472;2023-05-10T09:35:39;5.80;;;3.10;;
63370;SDS011;49504;48.336;14.472;2023-05-10T09:39:00;6.13;;;3.10;;
63370;SDS011;49504;48.336;14.472;2023-05-10T09:42:22;4.97;;;2.60;;
63370;SDS011;49504;48.336;14.472;2023-05-10T09:45:44;7.20;;;3.40;;
63370;SDS011;49504;48.336;14.472;2023-05-10T09:49:08;6.35;;;4.05;;
63370;SDS011;49504;48.336;14.472;2023-05-10T09:52:47;6.28;;;3.00;;
63370;SDS011;49504;48.336;14.472;2023-05-10T09:56:10;5.30;;;3.17;;
63370;SDS011;49504;48.336;14.472;2023-05-10T09:59:32;7.43;;;3.38;;
63370;SDS011;49504;48.336;14.472;2023-05-10T10:02:55;5.50;;;2.88;;
63370;SDS011;49504;48.336;14.472;2023-05-10T10:06:18;5.50;;;3.45;;
63370;SDS011;49504;48.336;14.472;2023-05-10T10:09:41;5.07;;;3.10;;
63370;SDS011;49504;48.336;14.472;2023-05-10T10:13:02;5.85;;;3.50;;
63370;SDS011;49504;48.336;14.472;2023-05-10T10:16:24;5.72;;;3.25;;
63370;SDS011;49504;48.336;14.472;2023-05-10T10:19:45;5.78;;;3.40;;
63370;SDS011;49504;48.336;14.472;2023-05-10T10:23:08;5.47;;;3.15;;
63370;SDS011;49504;48.336;14.472;2023-05-10T10:26:31;5.13;;;3.17;;
63370;SDS011;49504;48.336;14.472;2023-05-10T10:33:29;5.35;;;3.05;;
63370;SDS011;49504;48.336;14.472;2023-05-10T10:37:03;5.70;;;3.10;;
63370;SDS011;49504;48.336;14.472;2023-05-10T10:43:49;5.55;;;3.08;;
63370;SDS011;49504;48.336;14.472;2023-05-10T10:47:46;5.80;;;3.35;;
63370;SDS011;49504;48.336;14.472;2023-05-10T10:51:07;5.75;;;3.45;;
63370;SDS011;49504;48.336;14.472;2023-05-10T10:57:22;6.05;;;3.53;;
63370;SDS011;49504;48.336;14.472;2023-05-10T11:00:43;6.10;;;3.35;;
63370;SDS011;49504;48.336;14.472;2023-05-10T11:04:17;6.40;;;2.92;;
63370;SDS011;49504;48.336;14.472;2023-05-10T11:07:50;7.15;;;3.85;;
63370;SDS011;49504;48.336;14.472;2023-05-10T11:11:14;5.30;;;3.20;;
63370;SDS011;49504;48.336;14.472;2023-05-10T11:14:36;4.85;;;3.17;;
63370;SDS011;49504;48.336;14.472;2023-05-10T11:17:58;4.75;;;2.88;;
63370;SDS011;49504;48.336;14.472;2023-05-10T11:21:19;5.30;;;3.20;;
63370;SDS011;49504;48.336;14.472;2023-05-10T11:24:41;5.15;;;3.17;;
63370;SDS011;49504;48.336;14.472;2023-05-10T11:28:17;5.18;;;3.17;;
63370;SDS011;49504;48.336;14.472;2023-05-10T11:31:43;5.88;;;3.45;;
63370;SDS011;49504;48.336;14.472;2023-05-10T11:35:08;5.35;;;3.30;;
63370;SDS011;49504;48.336;14.472;2023-05-10T11:38:30;6.60;;;3.33;;
63370;SDS011;49504;48.336;14.472;2023-05-10T11:41:53;6.43;;;3.72;;
63370;SDS011;49504;48.336;14.472;2023-05-10T11:45:15;4.95;;;3.10;;
63370;SDS011;49504;48.336;14.472;2023-05-10T11:48:38;6.35;;;3.67;;
63370;SDS011;49504;48.336;14.472;2023-05-10T11:52:05;5.10;;;3.00;;
63370;SDS011;49504;48.336;14.472;2023-05-10T11:55:27;5.65;;;3.35;;
63370;SDS011;49504;48.336;14.472;2023-05-10T11:58:52;4.80;;;2.63;;
63370;SDS011;49504;48.336;14.472;2023-05-10T12:02:14;5.60;;;2.92;;
63370;SDS011;49504;48.336;14.472;2023-05-10T12:05:37;4.53;;;2.80;;
63370;SDS011;49504;48.336;14.472;2023-05-10T12:08:58;6.72;;;2.90;;
63370;SDS011;49504;48.336;14.472;2023-05-10T12:12:22;5.07;;;2.80;;
63370;SDS011;49504;48.336;14.472;2023-05-10T12:15:43;5.43;;;3.60;;
63370;SDS011;49504;48.336;14.472;2023-05-10T12:19:04;6.03;;;3.00;;
63370;SDS011;49504;48.336;14.472;2023-05-10T12:22:26;9.25;;;4.57;;
63370;SDS011;49504;48.336;14.472;2023-05-10T12:25:48;5.57;;;3.50;;
63370;SDS011;49504;48.336;14.472;2023-05-10T12:29:12;5.90;;;3.08;;
63370;SDS011;49504;48.336;14.472;2023-05-10T12:35:59;8.68;;;3.50;;
63370;SDS011;49504;48.336;14.472;2023-05-10T12:39:22;5.10;;;3.35;;
63370;SDS011;49504;48.336;14.472;2023-05-10T12:42:43;9.75;;;3.50;;
63370;SDS011;49504;48.336;14.472;2023-05-10T12:46:05;5.57;;;3.35;;
63370;SDS011;49504;48.336;14.472;2023-05-10T12:49:27;5.45;;;3.13;;
63370;SDS011;49504;48.336;14.472;2023-05-10T12:52:49;5.43;;;3.38;;
63370;SDS011;49504;48.336;14.472;2023-05-10T12:57:57;6.28;;;3.75;;
63370;SDS011;49504;48.336;14.472;2023-05-10T13:01:19;6.53;;;3.60;;
63370;SDS011;49504;48.336;14.472;2023-05-10T13:04:40;5.68;;;3.05;;
63370;SDS011;49504;48.336;14.472;2023-05-10T13:08:29;6.45;;;3.63;;
63370;SDS011;49504;48.336;14.472;2023-05-10T13:14:52;5.05;;;3.00;;
63370;SDS011;49504;48.336;14.472;2023-05-10T13:18:13;6.93;;;3.38;;
63370;SDS011;49504;48.336;14.472;2023-05-10T13:21:34;7.25;;;3.58;;
63370;SDS011;49504;48.336;14.472;2023-05-10T13:24:56;5.20;;;3.38;;
63370;SDS011;49504;48.336;14.472;2023-05-10T13:28:17;6.45;;;3.90;;
63370;SDS011;49504;48.336;14.472;2023-05-10T13:31:39;6.60;;;3.72;;
63370;SDS011;49504;48.336;14.472;2023-05-10T13:35:01;9.75;;;3.70;;
63370;SDS011;49504;48.336;14.472;2023-05-10T13:38:23;6.00;;;3.80;;
63370;SDS011;49504;48.336;14.472;2023-05-10T13:42:27;5.75;;;3.45;;
63370;SDS011;49504;48.336;14.472;2023-05-10T13:45:49;4.68;;;3.17;;
63370;SDS011;49504;48.336;14.472;2023-05-10T13:49:10;6.07;;;3.08;;
63370;SDS011;49504;48.336;14.472;2023-05-10T13:52:31;6.25;;;3.40;;
63370;SDS011;49504;48.336;14.472;2023-05-10T13:55:52;5.55;;;3.25;;
63370;SDS011;49504;48.336;14.472;2023-05-10T13:59:15;5.40;;;2.88;;
63370;SDS011;49504;48.336;14.472;2023-05-10T14:02:37;5.72;;;3.17;;
63370;SDS011;49504;48.336;14.472;2023-05-10T14:08:46;5.25;;;3.08;;
63370;SDS011;49504;48.336;14.472;2023-05-10T14:12:08;4.97;;;3.08;;
63370;SDS011;49504;48.336;14.472;2023-05-10T14:15:29;5.70;;;3.42;;
63370;SDS011;49504;48.336;14.472;2023-05-10T14:18:50;5.68;;;3.22;;
63370;SDS011;49504;48.336;14.472;2023-05-10T14:22:11;5.53;;;3.05;;
63370;SDS011;49504;48.336;14.472;2023-05-10T14:25:34;4.40;;;2.65;;
63370;SDS011;49504;48.336;14.472;2023-05-10T14:28:58;5.20;;;3.28;;
63370;SDS011;49504;48.336;14.472;2023-05-10T14:32:20;4.30;;;2.60;;
63370;SDS011;49504;48.336;14.472;2023-05-10T14:35:44;5.53;;;2.83;;
63370;SDS011;49504;48.336;14.472;2023-05-10T14:40:28;4.65;;;2.80;;
63370;SDS011;49504;48.336;14.472;2023-05-10T14:43:49;5.53;;;2.90;;
63370;SDS011;49504;48.336;14.472;2023-05-10T14:47:11;7.45;;;3.72;;
63370;SDS011;49504;48.336;14.472;2023-05-10T14:50:32;45.85;;;8.60;;
63370;SDS011;49504;48.336;14.472;2023-05-10T14:53:53;16.95;;;4.32;;
63370;SDS011;49504;48.336;14.472;2023-05-10T14:57:16;37.63;;;6.03;;
63370;SDS011;49504;48.336;14.472;2023-05-10T15:00:38;33.45;;;5.80;;
63370;SDS011;49504;48.336;14.472;2023-05-10T15:04:00;45.88;;;7.13;;
63370;SDS011;49504;48.336;14.472;2023-05-10T15:07:21;14.93;;;4.72;;
63370;SDS011;49504;48.336;14.472;2023-05-10T15:10:42;19.30;;;4.88;;
63370;SDS011;49504;48.336;14.472;2023-05-10T15:14:05;24.08;;;5.35;;
63370;SDS011;49504;48.336;14.472;2023-05-10T15:17:26;31.42;;;5.88;;
63370;SDS011;49504;48.336;14.472;2023-05-10T15:20:47;58.60;;;7.78;;
63370;SDS011;49504;48.336;14.472;2023-05-10T15:24:08;37.45;;;7.03;;
63370;SDS011;49504;48.336;14.472;2023-05-10T15:27:29;15.38;;;4.22;;
63370;SDS011;49504;48.336;14.472;2023-05-10T15:30:52;35.92;;;6.70;;
63370;SDS011;49504;48.336;14.472;2023-05-10T15:34:13;26.55;;;5.60;;
63370;SDS011;49504;48.336;14.472;2023-05-10T15:37:35;31.45;;;4.40;;
63370;SDS011;49504;48.336;14.472;2023-05-10T15:40:56;24.02;;;5.03;;
63370;SDS011;49504;48.336;14.472;2023-05-10T15:44:17;26.40;;;6.07;;
63370;SDS011;49504;48.336;14.472;2023-05-10T15:47:40;23.48;;;4.72;;
63370;SDS011;49504;48.336;14.472;2023-05-10T15:51:01;22.02;;;4.55;;
63370;SDS011;49504;48.336;14.472;2023-05-10T15:54:24;23.55;;;5.30;;
63370;SDS011;49504;48.336;14.472;2023-05-10T15:57:57;19.48;;;4.40;;
63370;SDS011;49504;48.336;14.472;2023-05-10T16:01:18;11.52;;;4.38;;
63370;SDS011;49504;48.336;14.472;2023-05-10T16:04:39;16.65;;;4.35;;
63370;SDS011;49504;48.336;14.472;2023-05-10T16:08:01;16.92;;;4.22;;
63370;SDS011;49504;48.336;14.472;2023-05-10T16:11:22;16.23;;;4.82;;
63370;SDS011;49504;48.336;14.472;2023-05-10T16:14:45;14.63;;;3.90;;
63370;SDS011;49504;48.336;14.472;2023-05-10T16:18:06;17.95;;;3.85;;
63370;SDS011;49504;48.336;14.472;2023-05-10T16:21:27;13.98;;;3.72;;
63370;SDS011;49504;48.336;14.472;2023-05-10T16:24:49;14.70;;;3.63;;
63370;SDS011;49504;48.336;14.472;2023-05-10T16:28:11;12.38;;;3.95;;
63370;SDS011;49504;48.336;14.472;2023-05-10T16:31:33;16.77;;;3.30;;
63370;SDS011;49504;48.336;14.472;2023-05-10T16:34:54;10.77;;;3.83;;
63370;SDS011;49504;48.336;14.472;2023-05-10T16:38:15;9.70;;;2.83;;
63370;SDS011;49504;48.336;14.472;2023-05-10T16:41:36;9.75;;;3.13;;
63370;SDS011;49504;48.336;14.472;2023-05-10T16:44:57;10.52;;;3.47;;
63370;SDS011;49504;48.336;14.472;2023-05-10T16:48:20;14.20;;;3.72;;
63370;SDS011;49504;48.336;14.472;2023-05-10T16:51:41;12.43;;;2.90;;
63370;SDS011;49504;48.336;14.472;2023-05-10T16:55:03;7.97;;;3.30;;
63370;SDS011;49504;48.336;14.472;2023-05-10T16:58:25;12.25;;;3.72;;
63370;SDS011;49504;48.336;14.472;2023-05-10T17:01:46;13.15;;;4.32;;
63370;SDS011;49504;48.336;14.472;2023-05-10T17:05:08;10.55;;;3.90;;
63370;SDS011;49504;48.336;14.472;2023-05-10T17:09:09;12.98;;;3.65;;
63370;SDS011;49504;48.336;14.472;2023-05-10T17:12:30;8.18;;;3.08;;
63370;SDS011;49504;48.336;14.472;2023-05-10T17:15:51;12.57;;;3.95;;
63370;SDS011;49504;48.336;14.472;2023-05-10T17:19:12;12.02;;;4.10;;
63370;SDS011;49504;48.336;14.472;2023-05-10T17:22:34;12.07;;;3.78;;
63370;SDS011;49504;48.336;14.472;2023-05-10T17:25:56;13.73;;;3.53;;
63370;SDS011;49504;48.336;14.472;2023-05-10T17:29:17;12.07;;;3.42;;
63370;SDS011;49504;48.336;14.472;2023-05-10T17:32:38;9.15;;;3.40;;
63370;SDS011;49504;48.336;14.472;2023-05-10T17:35:59;10.80;;;3.45;;
63370;SDS011;49504;48.336;14.472;2023-05-10T17:39:21;8.40;;;3.60;;
63370;SDS011;49504;48.336;14.472;2023-05-10T17:42:43;9.82;;;3.42;;
63370;SDS011;49504;48.336;14.472;2023-05-10T17:46:05;7.25;;;3.15;;
63370;SDS011;49504;48.336;14.472;2023-05-10T17:49:26;8.48;;;3.38;;
63370;SDS011;49504;48.336;14.472;2023-05-10T17:52:47;14.52;;;3.70;;
63370;SDS011;49504;48.336;14.472;2023-05-10T17:56:09;8.68;;;3.75;;
63370;SDS011;49504;48.336;14.472;2023-05-10T17:59:32;9.77;;;3.20;;
63370;SDS011;49504;48.336;14.472;2023-05-10T18:02:54;8.52;;;3.38;;
63370;SDS011;49504;48.336;14.472;2023-05-10T18:06:15;10.48;;;3.17;;
63370;SDS011;49504;48.336;14.472;2023-05-10T18:09:37;9.80;;;3.22;;
63370;SDS011;49504;48.336;14.472;2023-05-10T18:12:58;7.60;;;3.53;;
63370;SDS011;49504;48.336;14.472;2023-05-10T18:16:23;9.90;;;4.30;;
63370;SDS011;49504;48.336;14.472;2023-05-10T18:19:44;11.05;;;3.38;;
63370;SDS011;49504;48.336;14.472;2023-05-10T18:23:05;9.10;;;2.90;;
63370;SDS011;49504;48.336;14.472;2023-05-10T18:26:27;10.25;;;3.75;;
63370;SDS011;49504;48.336;14.472;2023-05-10T18:29:48;6.55;;;2.97;;
63370;SDS011;49504;48.336;14.472;2023-05-10T18:33:11;9.13;;;3.55;;
63370;SDS011;49504;48.336;14.472;2023-05-10T18:36:32;10.55;;;3.40;;
63370;SDS011;49504;48.336;14.472;2023-05-10T18:39:53;10.25;;;3.80;;
63370;SDS011;49504;48.336;14.472;2023-05-10T18:43:14;8.93;;;4.28;;
63370;SDS011;49504;48.336;14.472;2023-05-10T18:46:35;9.07;;;3.95;;
63370;SDS011;49504;48.336;14.472;2023-05-10T18:49:58;8.20;;;4.47;;
63370;SDS011;49504;48.336;14.472;2023-05-10T18:53:19;11.25;;;3.50;;
63370;SDS011;49504;48.336;14.472;2023-05-10T18:59:22;10.02;;;3.92;;
63370;SDS011;49504;48.336;14.472;2023-05-10T19:02:43;9.15;;;4.28;;
63370;SDS011;49504;48.336;14.472;2023-05-10T19:06:04;7.45;;;4.10;;
63370;SDS011;49504;48.336;14.472;2023-05-10T19:09:25;13.18;;;4.40;;
63370;SDS011;49504;48.336;14.472;2023-05-10T19:12:46;11.25;;;4.28;;
63370;SDS011;49504;48.336;14.472;2023-05-10T19:16:11;7.75;;;3.85;;
63370;SDS011;49504;48.336;14.472;2023-05-10T19:19:34;11.77;;;3.85;;
63370;SDS011;49504;48.336;14.472;2023-05-10T19:22:55;8.25;;;3.72;;
63370;SDS011;49504;48.336;14.472;2023-05-10T19:26:16;10.10;;;4.43;;
63370;SDS011;49504;48.336;14.472;2023-05-10T19:30:26;15.68;;;5.55;;
63370;SDS011;49504;48.336;14.472;2023-05-10T19:33:47;9.98;;;5.13;;
63370;SDS011;49504;48.336;14.472;2023-05-10T19:37:08;8.00;;;4.95;;
63370;SDS011;49504;48.336;14.472;2023-05-10T19:40:29;10.25;;;5.18;;
63370;SDS011;49504;48.336;14.472;2023-05-10T19:48:33;14.00;;;6.25;;
63370;SDS011;49504;48.336;14.472;2023-05-10T19:51:54;12.05;;;6.28;;
63370;SDS011;49504;48.336;14.472;2023-05-10T19:55:24;11.32;;;5.93;;
63370;SDS011;49504;48.336;14.472;2023-05-10T19:58:47;12.60;;;6.47;;
63370;SDS011;49504;48.336;14.472;2023-05-10T20:02:09;12.25;;;6.45;;
63370;SDS011;49504;48.336;14.472;2023-05-10T20:05:31;12.23;;;7.35;;
63370;SDS011;49504;48.336;14.472;2023-05-10T20:08:52;11.70;;;7.25;;
63370;SDS011;49504;48.336;14.472;2023-05-10T20:12:14;17.58;;;9.63;;
63370;SDS011;49504;48.336;14.472;2023-05-10T20:15:35;16.98;;;8.88;;
63370;SDS011;49504;48.336;14.472;2023-05-10T20:18:56;14.75;;;8.50;;
63370;SDS011;49504;48.336;14.472;2023-05-10T20:22:19;15.45;;;8.25;;
63370;SDS011;49504;48.336;14.472;2023-05-10T20:27:15;13.05;;;8.63;;
63370;SDS011;49504;48.336;14.472;2023-05-10T20:30:36;13.07;;;7.63;;
63370;SDS011;49504;48.336;14.472;2023-05-10T20:33:58;13.77;;;8.45;;
63370;SDS011;49504;48.336;14.472;2023-05-10T20:37:19;16.48;;;8.73;;
63370;SDS011;49504;48.336;14.472;2023-05-10T20:40:40;15.13;;;8.23;;
63370;SDS011;49504;48.336;14.472;2023-05-10T20:44:03;13.98;;;8.00;;
63370;SDS011;49504;48.336;14.472;2023-05-10T20:47:25;12.20;;;7.97;;
63370;SDS011;49504;48.336;14.472;2023-05-10T20:50:46;12.05;;;8.02;;
63370;SDS011;49504;48.336;14.472;2023-05-10T20:54:07;14.15;;;8.43;;
63370;SDS011;49504;48.336;14.472;2023-05-10T20:57:29;16.27;;;8.70;;
63370;SDS011;49504;48.336;14.472;2023-05-10T21:00:52;12.70;;;7.90;;
63370;SDS011;49504;48.336;14.472;2023-05-10T21:04:14;13.93;;;7.40;;
63370;SDS011;49504;48.336;14.472;2023-05-10T21:42:40;9.98;;;7.20;;
63370;SDS011;49504;48.336;14.472;2023-05-10T21:46:01;13.23;;;9.05;;
63370;SDS011;49504;48.336;14.472;2023-05-10T21:49:23;11.73;;;8.30;;
63370;SDS011;49504;48.336;14.472;2023-05-10T21:52:46;12.35;;;7.90;;
63370;SDS011;49504;48.336;14.472;2023-05-10T21:59:21;11.77;;;7.97;;
63370;SDS011;49504;48.336;14.472;2023-05-10T22:02:43;12.13;;;8.32;;
63370;SDS011;49504;48.336;14.472;2023-05-10T22:06:05;12.60;;;8.45;;
63370;SDS011;49504;48.336;14.472;2023-05-10T22:09:50;16.23;;;9.60;;
63370;SDS011;49504;48.336;14.472;2023-05-10T22:13:11;11.77;;;8.10;;
63370;SDS011;49504;48.336;14.472;2023-05-10T22:16:33;12.20;;;8.15;;
63370;SDS011;49504;48.336;14.472;2023-05-10T22:19:54;12.57;;;8.38;;
63370;SDS011;49504;48.336;14.472;2023-05-10T22:23:16;12.93;;;8.02;;
63370;SDS011;49504;48.336;14.472;2023-05-10T22:26:39;11.52;;;7.78;;
63370;SDS011;49504;48.336;14.472;2023-05-10T22:33:02;10.95;;;7.55;;
63370;SDS011;49504;48.336;14.472;2023-05-10T22:36:24;11.20;;;7.75;;
63370;SDS011;49504;48.336;14.472;2023-05-10T22:39:46;11.40;;;7.60;;
63370;SDS011;49504;48.336;14.472;2023-05-10T22:43:08;10.15;;;7.07;;
63370;SDS011;49504;48.336;14.472;2023-05-10T22:46:30;10.88;;;7.50;;
63370;SDS011;49504;48.336;14.472;2023-05-10T22:49:53;12.18;;;8.07;;
63370;SDS011;49504;48.336;14.472;2023-05-10T22:53:15;10.45;;;7.78;;
63370;SDS011;49504;48.336;14.472;2023-05-10T22:56:38;10.95;;;7.03;;
63370;SDS011;49504;48.336;14.472;2023-05-10T23:00:01;10.48;;;7.15;;
63370;SDS011;49504;48.336;14.472;2023-05-10T23:06:11;12.70;;;7.45;;
63370;SDS011;49504;48.336;14.472;2023-05-10T23:09:35;11.45;;;7.55;;
63370;SDS011;49504;48.336;14.472;2023-05-10T23:12:58;12.68;;;7.65;;
63370;SDS011;49504;48.336;14.472;2023-05-10T23:16:20;11.20;;;7.45;;
63370;SDS011;49504;48.336;14.472;2023-05-10T23:19:43;10.02;;;6.90;;
63370;SDS011;49504;48.336;14.472;2023-05-10T23:23:10;12.75;;;8.07;;
63370;SDS011;49504;48.336;14.472;2023-05-10T23:26:32;10.20;;;6.90;;
63370;SDS011;49504;48.336;14.472;2023-05-10T23:29:55;9.15;;;6.38;;
63370;SDS011;49504;48.336;14.472;2023-05-10T23:33:17;10.25;;;6.50;;
63370;SDS011;49504;48.336;14.472;2023-05-10T23:39:21;8.45;;;6.15;;
63370;SDS011;49504;48.336;14.472;2023-05-10T23:42:44;10.30;;;6.90;;
63370;SDS011;49504;48.336;14.472;2023-05-10T23:46:06;9.93;;;6.97;;
63370;SDS011;49504;48.336;14.472;2023-05-10T23:49:29;9.43;;;6.30;;
63370;SDS011;49504;48.336;14.472;2023-05-10T23:52:52;9.57;;;6.78;;
63370;SDS011;49504;48.336;14.472;2023-05-10T23:56:35;11.82;;;7.35;;
